sensor_id;sensor_type;location;lat;lon;timestamp;temperature;humidity
2967;DHT22;1493;51.496;7.210;2022-11-20T00:01:25;0.10;99.90
2967;DHT22;1493;51.496;7.210;2022-11-20T00:03:53;0.20;99.90
2967;DHT22;1493;51.496;7.210;2022-11-20T00:06:21;0.30;99.90
2967;DHT22;1493;51.496;7.210;2022-11-20T00:08:51;0.30;99.90
2967;DHT22;1493;51.496;7.210;2022-11-20T00:11:19;0.30;99.90
2967;DHT22;1493;51.496;7.210;2022-11-20T00:13:48;0.40;99.90
2967;DHT22;1493;51.496;7.210;2022-11-20T00:16:17;0.40;99.90
2967;DHT22;1493;51.496;7.210;2022-11-20T00:18:45;0.50;99.90
2967;DHT22;1493;51.496;7.210;2022-11-20T00:21:13;0.50;99.90
2967;DHT22;1493;51.496;7.210;2022-11-20T00:23:40;0.50;99.90
2967;DHT22;1493;51.496;7.210;2022-11-20T00:26:10;0.50;99.90
2967;DHT22;1493;51.496;7.210;2022-11-20T00:28:38;0.50;99.90
2967;DHT22;1493;51.496;7.210;2022-11-20T00:31:09;0.60;99.90
2967;DHT22;1493;51.496;7.210;2022-11-20T00:33:36;0.60;99.90
2967;DHT22;1493;51.496;7.210;2022-11-20T00:36:04;0.60;99.90
2967;DHT22;1493;51.496;7.210;2022-11-20T00:38:31;0.60;99.90
2967;DHT22;1493;51.496;7.210;2022-11-20T00:41:00;0.70;99.90
2967;DHT22;1493;51.496;7.210;2022-11-20T00:43:28;0.70;99.90
2967;DHT22;1493;51.496;7.210;2022-11-20T00:45:58;0.70;99.90
2967;DHT22;1493;51.496;7.210;2022-11-20T00:48:25;0.80;99.90
2967;DHT22;1493;51.496;7.210;2022-11-20T00:50:53;0.80;99.90
2967;DHT22;1493;51.496;7.210;2022-11-20T00:53:22;0.80;99.90
2967;DHT22;1493;51.496;7.210;2022-11-20T00:55:53;0.70;99.90
2967;DHT22;1493;51.496;7.210;2022-11-20T00:58:21;0.70;99.90
2967;DHT22;1493;51.496;7.210;2022-11-20T01:00:49;0.60;99.90
2967;DHT22;1493;51.496;7.210;2022-11-20T01:03:16;0.60;99.90
2967;DHT22;1493;51.496;7.210;2022-11-20T01:05:43;0.50;99.90
2967;DHT22;1493;51.496;7.210;2022-11-20T01:08:10;0.50;99.90
2967;DHT22;1493;51.496;7.210;2022-11-20T01:10:37;0.50;99.90
2967;DHT22;1493;51.496;7.210;2022-11-20T01:13:03;0.50;99.90
2967;DHT22;1493;51.496;7.210;2022-11-20T01:15:49;0.50;99.90
2967;DHT22;1493;51.496;7.210;2022-11-20T01:18:16;0.40;99.90
2967;DHT22;1493;51.496;7.210;2022-11-20T01:20:43;0.40;99.90
2967;DHT22;1493;51.496;7.210;2022-11-20T01:23:09;0.40;99.90
2967;DHT22;1493;51.496;7.210;2022-11-20T01:25:36;0.30;99.90
2967;DHT22;1493;51.496;7.210;2022-11-20T01:28:03;0.40;99.90
2967;DHT22;1493;51.496;7.210;2022-11-20T01:30:30;0.30;99.90
2967;DHT22;1493;51.496;7.210;2022-11-20T01:33:01;0.30;99.90
2967;DHT22;1493;51.496;7.210;2022-11-20T01:35:27;0.30;99.90
2967;DHT22;1493;51.496;7.210;2022-11-20T01:37:54;0.30;99.90
2967;DHT22;1493;51.496;7.210;2022-11-20T01:40:21;0.20;99.90
2967;DHT22;1493;51.496;7.210;2022-11-20T01:42:55;0.30;99.90
2967;DHT22;1493;51.496;7.210;2022-11-20T01:46:03;0.20;99.90
2967;DHT22;1493;51.496;7.210;2022-11-20T01:48:36;0.10;99.90
2967;DHT22;1493;51.496;7.210;2022-11-20T01:51:07;0.10;99.90
2967;DHT22;1493;51.496;7.210;2022-11-20T01:53:36;0.10;99.90
2967;DHT22;1493;51.496;7.210;2022-11-20T01:56:06;0.10;99.90
2967;DHT22;1493;51.496;7.210;2022-11-20T01:58:39;0.10;99.90
2967;DHT22;1493;51.496;7.210;2022-11-20T02:01:07;0.10;99.90
2967;DHT22;1493;51.496;7.210;2022-11-20T02:03:36;0.10;99.90
2967;DHT22;1493;51.496;7.210;2022-11-20T02:06:10;0.10;99.90
2967;DHT22;1493;51.496;7.210;2022-11-20T02:08:38;0.10;99.90
2967;DHT22;1493;51.496;7.210;2022-11-20T02:11:05;0.20;99.90
2967;DHT22;1493;51.496;7.210;2022-11-20T02:13:33;0.20;99.90
2967;DHT22;1493;51.496;7.210;2022-11-20T02:16:11;0.10;99.90
2967;DHT22;1493;51.496;7.210;2022-11-20T02:18:40;0.10;99.90
2967;DHT22;1493;51.496;7.210;2022-11-20T02:21:21;0.10;99.90
2967;DHT22;1493;51.496;7.210;2022-11-20T02:24:06;0.00;99.90
2967;DHT22;1493;51.496;7.210;2022-11-20T02:26:38;-0.10;99.90
2967;DHT22;1493;51.496;7.210;2022-11-20T02:29:05;0.00;99.90
2967;DHT22;1493;51.496;7.210;2022-11-20T02:31:37;0.00;99.90
2967;DHT22;1493;51.496;7.210;2022-11-20T02:34:04;0.00;99.90
2967;DHT22;1493;51.496;7.210;2022-11-20T02:36:33;-0.10;99.90
2967;DHT22;1493;51.496;7.210;2022-11-20T02:39:02;0.00;99.90
2967;DHT22;1493;51.496;7.210;2022-11-20T02:41:34;-0.10;99.90
2967;DHT22;1493;51.496;7.210;2022-11-20T02:44:02;0.00;99.90
2967;DHT22;1493;51.496;7.210;2022-11-20T02:46:29;0.00;99.90
2967;DHT22;1493;51.496;7.210;2022-11-20T02:48:59;0.10;99.90
2967;DHT22;1493;51.496;7.210;2022-11-20T02:51:26;0.10;99.90
2967;DHT22;1493;51.496;7.210;2022-11-20T02:53:53;0.10;99.90
2967;DHT22;1493;51.496;7.210;2022-11-20T02:56:21;0.00;99.90
2967;DHT22;1493;51.496;7.210;2022-11-20T02:58:48;0.00;99.90
2967;DHT22;1493;51.496;7.210;2022-11-20T03:01:15;0.10;99.90
2967;DHT22;1493;51.496;7.210;2022-11-20T03:03:42;0.00;99.90
2967;DHT22;1493;51.496;7.210;2022-11-20T03:06:09;-0.10;99.90
2967;DHT22;1493;51.496;7.210;2022-11-20T03:08:35;0.00;99.90
2967;DHT22;1493;51.496;7.210;2022-11-20T03:11:04;0.00;99.90
2967;DHT22;1493;51.496;7.210;2022-11-20T03:13:33;0.10;99.90
2967;DHT22;1493;51.496;7.210;2022-11-20T03:16:05;-0.10;99.90
2967;DHT22;1493;51.496;7.210;2022-11-20T03:18:32;-0.20;99.90
2967;DHT22;1493;51.496;7.210;2022-11-20T03:20:59;-0.10;99.90
2967;DHT22;1493;51.496;7.210;2022-11-20T03:23:29;-0.10;99.90
2967;DHT22;1493;51.496;7.210;2022-11-20T03:25:56;0.00;99.90
2967;DHT22;1493;51.496;7.210;2022-11-20T03:28:23;0.10;99.90
2967;DHT22;1493;51.496;7.210;2022-11-20T03:30:51;0.20;99.90
2967;DHT22;1493;51.496;7.210;2022-11-20T03:33:18;0.20;99.90
2967;DHT22;1493;51.496;7.210;2022-11-20T03:35:44;0.30;99.90
2967;DHT22;1493;51.496;7.210;2022-11-20T03:38:11;0.20;99.90
2967;DHT22;1493;51.496;7.210;2022-11-20T03:40:38;0.30;99.90
2967;DHT22;1493;51.496;7.210;2022-11-20T03:43:05;0.30;99.90
2967;DHT22;1493;51.496;7.210;2022-11-20T03:45:32;0.30;99.90
2967;DHT22;1493;51.496;7.210;2022-11-20T03:48:00;0.40;99.90
2967;DHT22;1493;51.496;7.210;2022-11-20T03:50:26;0.50;99.90
2967;DHT22;1493;51.496;7.210;2022-11-20T03:52:53;0.50;99.90
2967;DHT22;1493;51.496;7.210;2022-11-20T03:55:20;0.50;99.90
2967;DHT22;1493;51.496;7.210;2022-11-20T03:57:49;0.40;99.90
2967;DHT22;1493;51.496;7.210;2022-11-20T04:00:16;0.40;99.90
2967;DHT22;1493;51.496;7.210;2022-11-20T04:02:43;0.50;99.90
2967;DHT22;1493;51.496;7.210;2022-11-20T04:05:11;0.50;99.90
2967;DHT22;1493;51.496;7.210;2022-11-20T04:07:38;0.50;99.90
2967;DHT22;1493;51.496;7.210;2022-11-20T04:10:06;0.50;99.90
2967;DHT22;1493;51.496;7.210;2022-11-20T04:12:33;0.50;99.90
2967;DHT22;1493;51.496;7.210;2022-11-20T04:15:00;0.50;99.90
2967;DHT22;1493;51.496;7.210;2022-11-20T04:17:27;0.50;99.90
2967;DHT22;1493;51.496;7.210;2022-11-20T04:19:53;0.60;99.90
2967;DHT22;1493;51.496;7.210;2022-11-20T04:22:21;0.60;99.90
2967;DHT22;1493;51.496;7.210;2022-11-20T04:24:48;0.60;99.90
2967;DHT22;1493;51.496;7.210;2022-11-20T04:27:15;0.60;99.90
2967;DHT22;1493;51.496;7.210;2022-11-20T04:29:42;0.50;99.90
2967;DHT22;1493;51.496;7.210;2022-11-20T04:32:09;0.50;99.90
2967;DHT22;1493;51.496;7.210;2022-11-20T04:34:36;0.60;99.90
2967;DHT22;1493;51.496;7.210;2022-11-20T04:37:03;0.60;99.90
2967;DHT22;1493;51.496;7.210;2022-11-20T04:39:31;0.60;99.90
2967;DHT22;1493;51.496;7.210;2022-11-20T04:41:58;0.60;99.90
2967;DHT22;1493;51.496;7.210;2022-11-20T04:44:38;0.60;99.90
2967;DHT22;1493;51.496;7.210;2022-11-20T04:47:06;0.60;99.90
2967;DHT22;1493;51.496;7.210;2022-11-20T04:49:32;0.60;99.90
2967;DHT22;1493;51.496;7.210;2022-11-20T04:51:59;0.60;99.90
2967;DHT22;1493;51.496;7.210;2022-11-20T04:54:26;0.70;99.90
2967;DHT22;1493;51.496;7.210;2022-11-20T04:56:54;0.60;99.90
2967;DHT22;1493;51.496;7.210;2022-11-20T04:59:21;0.70;99.90
2967;DHT22;1493;51.496;7.210;2022-11-20T05:01:48;0.60;99.90
2967;DHT22;1493;51.496;7.210;2022-11-20T05:04:14;0.60;99.90
2967;DHT22;1493;51.496;7.210;2022-11-20T05:06:41;0.60;99.90
2967;DHT22;1493;51.496;7.210;2022-11-20T05:09:08;0.70;99.90
2967;DHT22;1493;51.496;7.210;2022-11-20T05:11:35;0.70;99.90
2967;DHT22;1493;51.496;7.210;2022-11-20T05:14:03;0.80;99.90
2967;DHT22;1493;51.496;7.210;2022-11-20T05:16:30;0.80;99.90
2967;DHT22;1493;51.496;7.210;2022-11-20T05:18:57;0.80;99.90
2967;DHT22;1493;51.496;7.210;2022-11-20T05:21:24;0.80;99.90
2967;DHT22;1493;51.496;7.210;2022-11-20T05:23:50;0.80;99.90
2967;DHT22;1493;51.496;7.210;2022-11-20T05:26:19;0.90;99.90
2967;DHT22;1493;51.496;7.210;2022-11-20T05:28:47;0.90;99.90
2967;DHT22;1493;51.496;7.210;2022-11-20T05:31:16;0.80;99.90
2967;DHT22;1493;51.496;7.210;2022-11-20T05:33:44;0.80;99.90
2967;DHT22;1493;51.496;7.210;2022-11-20T05:36:12;0.80;99.90
2967;DHT22;1493;51.496;7.210;2022-11-20T05:38:40;0.80;99.90
2967;DHT22;1493;51.496;7.210;2022-11-20T05:41:09;0.80;99.90
2967;DHT22;1493;51.496;7.210;2022-11-20T05:43:38;0.60;99.90
2967;DHT22;1493;51.496;7.210;2022-11-20T05:46:06;0.70;99.90
2967;DHT22;1493;51.496;7.210;2022-11-20T05:48:35;0.80;99.90
2967;DHT22;1493;51.496;7.210;2022-11-20T05:51:04;0.90;99.90
2967;DHT22;1493;51.496;7.210;2022-11-20T05:53:32;1.00;99.90
2967;DHT22;1493;51.496;7.210;2022-11-20T05:56:00;1.00;99.90
2967;DHT22;1493;51.496;7.210;2022-11-20T05:58:27;1.00;99.90
2967;DHT22;1493;51.496;7.210;2022-11-20T06:00:54;0.90;99.90
2967;DHT22;1493;51.496;7.210;2022-11-20T06:03:21;1.00;99.90
2967;DHT22;1493;51.496;7.210;2022-11-20T06:05:49;1.10;99.90
2967;DHT22;1493;51.496;7.210;2022-11-20T06:08:16;1.10;99.90
2967;DHT22;1493;51.496;7.210;2022-11-20T06:10:43;1.20;99.90
2967;DHT22;1493;51.496;7.210;2022-11-20T06:13:10;1.20;99.90
2967;DHT22;1493;51.496;7.210;2022-11-20T06:15:36;1.20;99.90
2967;DHT22;1493;51.496;7.210;2022-11-20T06:18:03;1.20;99.90
2967;DHT22;1493;51.496;7.210;2022-11-20T06:20:30;1.10;99.90
2967;DHT22;1493;51.496;7.210;2022-11-20T06:22:58;1.10;99.90
2967;DHT22;1493;51.496;7.210;2022-11-20T06:25:25;1.10;99.90
2967;DHT22;1493;51.496;7.210;2022-11-20T06:27:52;1.20;99.90
2967;DHT22;1493;51.496;7.210;2022-11-20T06:30:19;1.10;99.90
2967;DHT22;1493;51.496;7.210;2022-11-20T06:32:46;1.10;99.90
2967;DHT22;1493;51.496;7.210;2022-11-20T06:35:12;1.10;99.90
2967;DHT22;1493;51.496;7.210;2022-11-20T06:37:39;1.20;99.90
2967;DHT22;1493;51.496;7.210;2022-11-20T06:40:09;1.20;99.90
2967;DHT22;1493;51.496;7.210;2022-11-20T06:42:36;1.20;99.90
2967;DHT22;1493;51.496;7.210;2022-11-20T06:45:03;1.30;99.90
2967;DHT22;1493;51.496;7.210;2022-11-20T06:47:30;1.20;99.90
2967;DHT22;1493;51.496;7.210;2022-11-20T06:49:57;1.20;99.90
2967;DHT22;1493;51.496;7.210;2022-11-20T06:52:24;1.20;99.90
2967;DHT22;1493;51.496;7.210;2022-11-20T06:54:50;1.10;99.90
2967;DHT22;1493;51.496;7.210;2022-11-20T06:57:18;1.00;99.90
2967;DHT22;1493;51.496;7.210;2022-11-20T06:59:45;1.10;99.90
2967;DHT22;1493;51.496;7.210;2022-11-20T07:02:12;1.10;99.90
2967;DHT22;1493;51.496;7.210;2022-11-20T07:04:39;1.00;99.90
2967;DHT22;1493;51.496;7.210;2022-11-20T07:07:08;1.00;99.90
2967;DHT22;1493;51.496;7.210;2022-11-20T07:09:35;0.80;99.90
2967;DHT22;1493;51.496;7.210;2022-11-20T07:12:02;0.80;99.90
2967;DHT22;1493;51.496;7.210;2022-11-20T07:14:30;0.90;99.90
2967;DHT22;1493;51.496;7.210;2022-11-20T07:16:57;0.80;99.90
2967;DHT22;1493;51.496;7.210;2022-11-20T07:19:26;0.90;99.90
2967;DHT22;1493;51.496;7.210;2022-11-20T07:21:52;0.90;99.90
2967;DHT22;1493;51.496;7.210;2022-11-20T07:24:19;0.90;99.90
2967;DHT22;1493;51.496;7.210;2022-11-20T07:26:46;0.90;99.90
2967;DHT22;1493;51.496;7.210;2022-11-20T07:29:14;0.90;99.90
2967;DHT22;1493;51.496;7.210;2022-11-20T07:31:43;0.90;99.90
2967;DHT22;1493;51.496;7.210;2022-11-20T07:34:10;0.90;99.90
2967;DHT22;1493;51.496;7.210;2022-11-20T07:36:37;1.00;99.90
2967;DHT22;1493;51.496;7.210;2022-11-20T07:39:04;1.00;99.90
2967;DHT22;1493;51.496;7.210;2022-11-20T07:41:31;1.00;99.90
2967;DHT22;1493;51.496;7.210;2022-11-20T07:43:57;0.90;99.90
2967;DHT22;1493;51.496;7.210;2022-11-20T07:46:24;1.00;99.90
2967;DHT22;1493;51.496;7.210;2022-11-20T07:48:52;1.00;99.90
2967;DHT22;1493;51.496;7.210;2022-11-20T07:51:19;1.00;99.90
2967;DHT22;1493;51.496;7.210;2022-11-20T07:53:46;0.90;99.90
2967;DHT22;1493;51.496;7.210;2022-11-20T07:56:13;0.90;99.90
2967;DHT22;1493;51.496;7.210;2022-11-20T07:58:40;1.00;99.90
2967;DHT22;1493;51.496;7.210;2022-11-20T08:01:07;1.00;99.90
2967;DHT22;1493;51.496;7.210;2022-11-20T08:03:35;1.10;99.90
2967;DHT22;1493;51.496;7.210;2022-11-20T08:06:04;1.10;99.90
2967;DHT22;1493;51.496;7.210;2022-11-20T08:08:31;1.00;99.90
2967;DHT22;1493;51.496;7.210;2022-11-20T08:10:58;1.10;99.90
2967;DHT22;1493;51.496;7.210;2022-11-20T08:13:46;1.20;99.90
2967;DHT22;1493;51.496;7.210;2022-11-20T08:16:30;1.20;99.90
2967;DHT22;1493;51.496;7.210;2022-11-20T08:18:57;1.20;99.90
2967;DHT22;1493;51.496;7.210;2022-11-20T08:21:25;1.20;99.90
2967;DHT22;1493;51.496;7.210;2022-11-20T08:23:52;1.20;99.90
2967;DHT22;1493;51.496;7.210;2022-11-20T08:26:20;1.30;99.90
2967;DHT22;1493;51.496;7.210;2022-11-20T08:28:47;1.20;99.90
2967;DHT22;1493;51.496;7.210;2022-11-20T08:31:14;1.30;99.90
2967;DHT22;1493;51.496;7.210;2022-11-20T08:33:41;1.30;99.90
2967;DHT22;1493;51.496;7.210;2022-11-20T08:36:08;1.40;99.90
2967;DHT22;1493;51.496;7.210;2022-11-20T08:38:36;1.40;99.90
2967;DHT22;1493;51.496;7.210;2022-11-20T08:41:04;1.50;99.90
2967;DHT22;1493;51.496;7.210;2022-11-20T08:43:49;1.50;99.90
2967;DHT22;1493;51.496;7.210;2022-11-20T08:46:19;1.60;99.90
2967;DHT22;1493;51.496;7.210;2022-11-20T08:48:46;1.70;99.90
2967;DHT22;1493;51.496;7.210;2022-11-20T08:51:13;1.70;99.90
2967;DHT22;1493;51.496;7.210;2022-11-20T08:53:42;1.80;99.90
2967;DHT22;1493;51.496;7.210;2022-11-20T08:56:09;1.80;99.90
2967;DHT22;1493;51.496;7.210;2022-11-20T08:58:39;1.90;99.90
2967;DHT22;1493;51.496;7.210;2022-11-20T09:01:06;2.00;99.90
2967;DHT22;1493;51.496;7.210;2022-11-20T09:03:33;2.00;99.90
2967;DHT22;1493;51.496;7.210;2022-11-20T09:06:02;2.10;99.90
2967;DHT22;1493;51.496;7.210;2022-11-20T09:08:29;2.10;99.90
2967;DHT22;1493;51.496;7.210;2022-11-20T09:10:58;2.20;99.90
2967;DHT22;1493;51.496;7.210;2022-11-20T09:13:30;2.20;99.90
2967;DHT22;1493;51.496;7.210;2022-11-20T09:15:59;2.30;99.90
2967;DHT22;1493;51.496;7.210;2022-11-20T09:18:26;2.40;99.90
2967;DHT22;1493;51.496;7.210;2022-11-20T09:20:56;2.50;99.90
2967;DHT22;1493;51.496;7.210;2022-11-20T09:23:23;2.50;99.90
2967;DHT22;1493;51.496;7.210;2022-11-20T09:25:50;2.60;99.90
2967;DHT22;1493;51.496;7.210;2022-11-20T09:28:19;2.70;99.90
2967;DHT22;1493;51.496;7.210;2022-11-20T09:30:46;2.80;99.90
2967;DHT22;1493;51.496;7.210;2022-11-20T09:33:15;3.00;99.90
2967;DHT22;1493;51.496;7.210;2022-11-20T09:35:43;3.10;99.90
2967;DHT22;1493;51.496;7.210;2022-11-20T09:38:10;3.30;99.90
2967;DHT22;1493;51.496;7.210;2022-11-20T09:40:40;3.40;99.90
2967;DHT22;1493;51.496;7.210;2022-11-20T09:43:12;3.40;99.90
2967;DHT22;1493;51.496;7.210;2022-11-20T09:45:53;3.60;99.90
2967;DHT22;1493;51.496;7.210;2022-11-20T09:48:48;3.70;99.90
2967;DHT22;1493;51.496;7.210;2022-11-20T09:51:25;3.90;99.90
2967;DHT22;1493;51.496;7.210;2022-11-20T09:54:02;4.10;99.90
2967;DHT22;1493;51.496;7.210;2022-11-20T09:56:30;4.20;99.90
2967;DHT22;1493;51.496;7.210;2022-11-20T09:58:59;4.30;99.90
2967;DHT22;1493;51.496;7.210;2022-11-20T10:01:32;4.40;99.90
2967;DHT22;1493;51.496;7.210;2022-11-20T10:04:02;4.50;99.90
2967;DHT22;1493;51.496;7.210;2022-11-20T10:06:32;4.60;99.90
2967;DHT22;1493;51.496;7.210;2022-11-20T10:09:08;4.70;99.90
2967;DHT22;1493;51.496;7.210;2022-11-20T10:11:46;4.70;99.90
2967;DHT22;1493;51.496;7.210;2022-11-20T10:14:24;4.80;99.90
2967;DHT22;1493;51.496;7.210;2022-11-20T10:17:02;4.90;99.90
2967;DHT22;1493;51.496;7.210;2022-11-20T10:19:54;4.90;99.90
2967;DHT22;1493;51.496;7.210;2022-11-20T10:22:35;5.00;99.90
2967;DHT22;1493;51.496;7.210;2022-11-20T10:25:14;5.00;99.90
2967;DHT22;1493;51.496;7.210;2022-11-20T10:28:06;5.00;99.90
2967;DHT22;1493;51.496;7.210;2022-11-20T10:30:39;5.10;99.90
2967;DHT22;1493;51.496;7.210;2022-11-20T10:33:13;5.30;99.90
2967;DHT22;1493;51.496;7.210;2022-11-20T10:35:44;5.50;99.90
2967;DHT22;1493;51.496;7.210;2022-11-20T10:38:16;5.60;99.90
2967;DHT22;1493;51.496;7.210;2022-11-20T10:40:47;5.70;99.90
2967;DHT22;1493;51.496;7.210;2022-11-20T10:43:19;5.90;99.90
2967;DHT22;1493;51.496;7.210;2022-11-20T10:45:52;6.20;99.90
2967;DHT22;1493;51.496;7.210;2022-11-20T10:48:23;6.60;99.90
2967;DHT22;1493;51.496;7.210;2022-11-20T10:51:11;7.00;99.90
2967;DHT22;1493;51.496;7.210;2022-11-20T10:53:58;7.00;99.90
2967;DHT22;1493;51.496;7.210;2022-11-20T10:56:34;7.00;99.90
2967;DHT22;1493;51.496;7.210;2022-11-20T10:59:18;6.70;99.90
2967;DHT22;1493;51.496;7.210;2022-11-20T11:01:51;6.60;99.90
2967;DHT22;1493;51.496;7.210;2022-11-20T11:04:35;6.50;99.90
2967;DHT22;1493;51.496;7.210;2022-11-20T11:07:08;6.40;99.90
2967;DHT22;1493;51.496;7.210;2022-11-20T11:09:39;6.40;99.90
2967;DHT22;1493;51.496;7.210;2022-11-20T11:12:08;6.40;99.90
2967;DHT22;1493;51.496;7.210;2022-11-20T11:14:43;6.30;99.90
2967;DHT22;1493;51.496;7.210;2022-11-20T11:17:21;6.20;99.90
2967;DHT22;1493;51.496;7.210;2022-11-20T11:19:59;6.30;99.90
2967;DHT22;1493;51.496;7.210;2022-11-20T11:22:28;6.10;99.90
2967;DHT22;1493;51.496;7.210;2022-11-20T11:24:57;6.10;99.90
2967;DHT22;1493;51.496;7.210;2022-11-20T11:27:25;6.20;99.90
2967;DHT22;1493;51.496;7.210;2022-11-20T11:30:03;6.30;99.90
2967;DHT22;1493;51.496;7.210;2022-11-20T11:32:37;6.50;99.90
2967;DHT22;1493;51.496;7.210;2022-11-20T11:35:11;6.50;99.90
2967;DHT22;1493;51.496;7.210;2022-11-20T11:37:46;6.50;99.90
2967;DHT22;1493;51.496;7.210;2022-11-20T11:40:15;6.20;99.90
2967;DHT22;1493;51.496;7.210;2022-11-20T11:42:43;6.30;99.90
2967;DHT22;1493;51.496;7.210;2022-11-20T11:45:14;6.40;99.90
2967;DHT22;1493;51.496;7.210;2022-11-20T11:47:45;6.40;99.90
2967;DHT22;1493;51.496;7.210;2022-11-20T11:50:19;6.40;99.90
2967;DHT22;1493;51.496;7.210;2022-11-20T11:52:54;6.30;99.90
2967;DHT22;1493;51.496;7.210;2022-11-20T11:55:29;6.60;99.90
2967;DHT22;1493;51.496;7.210;2022-11-20T11:58:06;7.00;99.90
2967;DHT22;1493;51.496;7.210;2022-11-20T12:00:36;7.00;99.90
2967;DHT22;1493;51.496;7.210;2022-11-20T12:03:08;7.00;99.90
2967;DHT22;1493;51.496;7.210;2022-11-20T12:05:43;6.90;99.90
2967;DHT22;1493;51.496;7.210;2022-11-20T12:08:16;6.80;99.90
2967;DHT22;1493;51.496;7.210;2022-11-20T12:10:48;7.00;99.90
2967;DHT22;1493;51.496;7.210;2022-11-20T12:13:34;7.00;99.90
2967;DHT22;1493;51.496;7.210;2022-11-20T12:16:04;6.80;99.90
2967;DHT22;1493;51.496;7.210;2022-11-20T12:18:31;6.90;99.90
2967;DHT22;1493;51.496;7.210;2022-11-20T12:21:10;6.80;99.90
2967;DHT22;1493;51.496;7.210;2022-11-20T12:23:46;6.80;99.90
2967;DHT22;1493;51.496;7.210;2022-11-20T12:26:19;6.80;99.90
2967;DHT22;1493;51.496;7.210;2022-11-20T12:29:01;6.70;99.90
2967;DHT22;1493;51.496;7.210;2022-11-20T12:31:42;6.70;99.90
2967;DHT22;1493;51.496;7.210;2022-11-20T12:34:43;6.60;99.90
2967;DHT22;1493;51.496;7.210;2022-11-20T12:37:22;6.60;99.90
2967;DHT22;1493;51.496;7.210;2022-11-20T12:39:55;6.60;99.90
2967;DHT22;1493;51.496;7.210;2022-11-20T12:42:38;6.50;99.90
2967;DHT22;1493;51.496;7.210;2022-11-20T12:45:46;6.50;99.90
2967;DHT22;1493;51.496;7.210;2022-11-20T12:51:25;6.30;99.90
2967;DHT22;1493;51.496;7.210;2022-11-20T12:54:18;6.30;99.90
2967;DHT22;1493;51.496;7.210;2022-11-20T12:56:54;6.30;99.90
2967;DHT22;1493;51.496;7.210;2022-11-20T12:59:34;6.30;99.90
2967;DHT22;1493;51.496;7.210;2022-11-20T13:02:18;6.30;99.90
2967;DHT22;1493;51.496;7.210;2022-11-20T13:05:01;6.30;99.90
2967;DHT22;1493;51.496;7.210;2022-11-20T13:07:30;6.10;99.90
2967;DHT22;1493;51.496;7.210;2022-11-20T13:10:00;6.00;99.90
2967;DHT22;1493;51.496;7.210;2022-11-20T13:12:33;6.00;99.90
2967;DHT22;1493;51.496;7.210;2022-11-20T13:15:07;6.10;99.90
2967;DHT22;1493;51.496;7.210;2022-11-20T13:17:42;6.10;99.90
2967;DHT22;1493;51.496;7.210;2022-11-20T13:20:15;6.00;99.90
2967;DHT22;1493;51.496;7.210;2022-11-20T13:22:44;6.00;99.90
2967;DHT22;1493;51.496;7.210;2022-11-20T13:25:24;5.90;99.90
2967;DHT22;1493;51.496;7.210;2022-11-20T13:27:51;6.00;99.90
2967;DHT22;1493;51.496;7.210;2022-11-20T13:30:21;6.00;99.90
2967;DHT22;1493;51.496;7.210;2022-11-20T13:32:49;6.00;99.90
2967;DHT22;1493;51.496;7.210;2022-11-20T13:35:28;6.00;99.90
2967;DHT22;1493;51.496;7.210;2022-11-20T13:38:08;6.00;99.90
2967;DHT22;1493;51.496;7.210;2022-11-20T13:40:38;6.10;99.90
2967;DHT22;1493;51.496;7.210;2022-11-20T13:43:16;6.00;99.90
2967;DHT22;1493;51.496;7.210;2022-11-20T13:45:55;6.00;99.90
2967;DHT22;1493;51.496;7.210;2022-11-20T13:48:24;6.00;99.90
2967;DHT22;1493;51.496;7.210;2022-11-20T13:51:00;6.00;99.90
2967;DHT22;1493;51.496;7.210;2022-11-20T13:56:36;5.90;99.90
2967;DHT22;1493;51.496;7.210;2022-11-20T13:59:12;5.80;99.90
2967;DHT22;1493;51.496;7.210;2022-11-20T14:01:44;5.80;99.90
2967;DHT22;1493;51.496;7.210;2022-11-20T14:04:15;5.80;99.90
2967;DHT22;1493;51.496;7.210;2022-11-20T14:06:44;5.70;99.90
2967;DHT22;1493;51.496;7.210;2022-11-20T14:09:23;5.70;99.90
2967;DHT22;1493;51.496;7.210;2022-11-20T14:11:52;5.70;99.90
2967;DHT22;1493;51.496;7.210;2022-11-20T14:14:21;5.80;99.90
2967;DHT22;1493;51.496;7.210;2022-11-20T14:16:49;5.90;99.90
2967;DHT22;1493;51.496;7.210;2022-11-20T14:19:30;5.90;99.90
2967;DHT22;1493;51.496;7.210;2022-11-20T14:22:09;5.90;99.90
2967;DHT22;1493;51.496;7.210;2022-11-20T14:24:36;5.90;99.90
2967;DHT22;1493;51.496;7.210;2022-11-20T14:27:04;5.90;99.90
2967;DHT22;1493;51.496;7.210;2022-11-20T14:29:34;5.90;99.90
2967;DHT22;1493;51.496;7.210;2022-11-20T14:32:04;5.80;99.90
2967;DHT22;1493;51.496;7.210;2022-11-20T14:34:32;5.90;99.90
2967;DHT22;1493;51.496;7.210;2022-11-20T14:37:01;5.80;99.90
2967;DHT22;1493;51.496;7.210;2022-11-20T14:39:31;5.90;99.90
2967;DHT22;1493;51.496;7.210;2022-11-20T14:41:59;5.90;99.90
2967;DHT22;1493;51.496;7.210;2022-11-20T14:44:30;5.80;99.90
2967;DHT22;1493;51.496;7.210;2022-11-20T14:46:59;5.80;99.90
2967;DHT22;1493;51.496;7.210;2022-11-20T14:49:26;5.70;99.90
2967;DHT22;1493;51.496;7.210;2022-11-20T14:51:59;5.70;99.90
2967;DHT22;1493;51.496;7.210;2022-11-20T14:54:27;5.70;99.90
2967;DHT22;1493;51.496;7.210;2022-11-20T14:56:56;5.70;99.90
2967;DHT22;1493;51.496;7.210;2022-11-20T14:59:24;5.60;99.90
2967;DHT22;1493;51.496;7.210;2022-11-20T15:01:57;5.60;99.90
2967;DHT22;1493;51.496;7.210;2022-11-20T15:04:25;5.50;99.90
2967;DHT22;1493;51.496;7.210;2022-11-20T15:06:53;5.50;99.90
2967;DHT22;1493;51.496;7.210;2022-11-20T15:09:20;5.50;99.90
2967;DHT22;1493;51.496;7.210;2022-11-20T15:11:54;5.40;99.90
2967;DHT22;1493;51.496;7.210;2022-11-20T15:14:22;5.40;99.90
2967;DHT22;1493;51.496;7.210;2022-11-20T15:16:50;5.40;99.90
2967;DHT22;1493;51.496;7.210;2022-11-20T15:19:20;5.20;99.90
2967;DHT22;1493;51.496;7.210;2022-11-20T15:21:47;5.20;99.90
2967;DHT22;1493;51.496;7.210;2022-11-20T15:24:14;5.20;99.90
2967;DHT22;1493;51.496;7.210;2022-11-20T15:26:41;5.20;99.90
2967;DHT22;1493;51.496;7.210;2022-11-20T15:29:10;5.10;99.90
2967;DHT22;1493;51.496;7.210;2022-11-20T15:31:37;5.10;99.90
2967;DHT22;1493;51.496;7.210;2022-11-20T15:34:10;5.10;99.90
2967;DHT22;1493;51.496;7.210;2022-11-20T15:36:42;5.10;99.90
2967;DHT22;1493;51.496;7.210;2022-11-20T15:39:09;5.10;99.90
2967;DHT22;1493;51.496;7.210;2022-11-20T15:41:37;5.00;99.90
2967;DHT22;1493;51.496;7.210;2022-11-20T15:44:04;5.00;99.90
2967;DHT22;1493;51.496;7.210;2022-11-20T15:46:33;5.00;99.90
2967;DHT22;1493;51.496;7.210;2022-11-20T15:49:03;5.00;99.90
2967;DHT22;1493;51.496;7.210;2022-11-20T15:51:33;4.90;99.90
2967;DHT22;1493;51.496;7.210;2022-11-20T15:54:05;4.90;99.90
2967;DHT22;1493;51.496;7.210;2022-11-20T15:56:35;4.90;99.90
2967;DHT22;1493;51.496;7.210;2022-11-20T15:59:02;4.90;99.90
2967;DHT22;1493;51.496;7.210;2022-11-20T16:01:32;4.90;99.90
2967;DHT22;1493;51.496;7.210;2022-11-20T16:03:59;4.90;99.90
2967;DHT22;1493;51.496;7.210;2022-11-20T16:06:29;5.00;99.90
2967;DHT22;1493;51.496;7.210;2022-11-20T16:08:56;5.00;99.90
2967;DHT22;1493;51.496;7.210;2022-11-20T16:11:24;5.00;99.90
2967;DHT22;1493;51.496;7.210;2022-11-20T16:13:51;4.90;99.90
2967;DHT22;1493;51.496;7.210;2022-11-20T16:16:36;5.00;99.90
2967;DHT22;1493;51.496;7.210;2022-11-20T16:19:05;5.00;99.90
2967;DHT22;1493;51.496;7.210;2022-11-20T16:21:33;5.10;99.90
2967;DHT22;1493;51.496;7.210;2022-11-20T16:24:01;5.10;99.90
2967;DHT22;1493;51.496;7.210;2022-11-20T16:26:30;5.10;99.90
2967;DHT22;1493;51.496;7.210;2022-11-20T16:28:58;5.10;99.90
2967;DHT22;1493;51.496;7.210;2022-11-20T16:31:25;5.10;99.90
2967;DHT22;1493;51.496;7.210;2022-11-20T16:33:53;5.10;99.90
2967;DHT22;1493;51.496;7.210;2022-11-20T16:36:22;5.20;99.90
2967;DHT22;1493;51.496;7.210;2022-11-20T16:38:51;5.10;99.90
2967;DHT22;1493;51.496;7.210;2022-11-20T16:41:18;5.10;99.90
2967;DHT22;1493;51.496;7.210;2022-11-20T16:43:48;5.00;99.90